Time;durP1;ratioP1;P1;durP2;ratioP2;P2;SDS_P1;SDS_P2;PMS_P1;PMS_P2;Temp;Humidity;BMP_temperature;BMP_pressure;BME280_temperature;BME280_humidity;BME280_pressure;Samples;Min_cycle;Max_cycle;Signal;HPM_P1;HPM_P2
2023/07/16 00:01:16;;;;;;;5.90;3.70;;;;;;;19.36;65.13;99672.22;107142;1257;60513;-38
2023/07/16 00:03:44;;;;;;;5.90;3.50;;;;;;;19.29;65.15;99676.05;107103;1257;168509;-38
2023/07/16 00:07:41;;;;;;;5.40;3.50;;;;;;;19.22;65.65;99679.13;104251;1292;601118;-38
2023/07/16 00:10:09;;;;;;;4.90;3.70;;;;;;;19.19;65.86;99675.54;106613;1269;61652;-38
2023/07/16 00:12:36;;;;;;;6.50;3.80;;;;;;;19.21;65.85;99678.20;106572;1267;59215;-38
2023/07/16 00:15:06;;;;;;;7.10;3.60;;;;;;;19.19;66.06;99679.23;106646;1265;72204;-38
2023/07/16 00:17:34;;;;;;;5.70;3.80;;;;;;;19.14;66.50;99678.90;106781;1267;66323;-38
2023/07/16 00:20:04;;;;;;;6.90;3.50;;;;;;;19.03;67.06;99681.91;106681;1267;72715;-38
2023/07/16 00:22:31;;;;;;;4.90;3.50;;;;;;;18.95;67.11;99678.70;106647;1267;173826;-38
2023/07/16 00:24:59;;;;;;;5.30;3.70;;;;;;;18.91;67.18;99679.45;106786;1263;59355;-38
2023/07/16 00:27:26;;;;;;;10.30;3.90;;;;;;;18.93;66.84;99681.55;106803;1268;72241;-38
2023/07/16 00:29:54;;;;;;;5.70;3.70;;;;;;;18.96;66.29;99681.05;106654;1267;68088;-38
2023/07/16 00:32:21;;;;;;;8.20;3.60;;;;;;;18.96;66.00;99683.17;106711;1263;72686;-38
2023/07/16 00:34:49;;;;;;;5.30;3.70;;;;;;;18.95;65.88;99684.98;107270;1256;60021;-38
2023/07/16 00:37:17;;;;;;;4.40;3.70;;;;;;;18.95;66.07;99684.12;107335;1257;59653;-38
2023/07/16 00:39:44;;;;;;;8.20;4.10;;;;;;;18.94;66.12;99681.06;107315;1255;73013;-38
2023/07/16 00:42:12;;;;;;;9.80;5.00;;;;;;;18.89;66.29;99680.40;107285;1258;66316;-38
2023/07/16 00:44:39;;;;;;;5.40;4.40;;;;;;;18.80;66.26;99680.89;107231;1260;72706;-38
2023/07/16 00:47:07;;;;;;;5.00;4.10;;;;;;;18.78;65.87;99681.70;107319;1263;61653;-38
2023/07/16 00:49:35;;;;;;;7.40;4.30;;;;;;;18.79;65.50;99676.42;107054;1264;59648;-38
2023/07/16 00:52:03;;;;;;;6.70;4.50;;;;;;;18.77;65.35;99674.32;107283;1263;73047;-38
2023/07/16 00:54:31;;;;;;;8.90;4.60;;;;;;;18.76;65.21;99672.92;107287;1255;67575;-38
2023/07/16 00:56:58;;;;;;;5.00;4.50;;;;;;;18.73;65.08;99672.02;107153;1260;72711;-38
2023/07/16 00:59:26;;;;;;;5.90;4.50;;;;;;;18.70;65.32;99673.29;107202;1260;59611;-38
2023/07/16 01:01:53;;;;;;;8.60;5.00;;;;;;;18.65;65.61;99670.81;107271;1257;60073;-38
2023/07/16 01:04:21;;;;;;;6.10;4.40;;;;;;;18.62;65.95;99669.44;107263;1254;73495;-38
2023/07/16 01:06:53;;;;;;;6.70;4.80;;;;;;;18.61;66.13;99671.17;107319;1254;66847;-38
2023/07/16 01:09:21;;;;;;;7.10;4.70;;;;;;;18.63;66.28;99669.81;107263;1257;71545;-38
2023/07/16 01:11:50;;;;;;;6.20;4.40;;;;;;;18.63;66.60;99672.50;107053;1257;60224;-38
2023/07/16 01:14:17;;;;;;;11.30;4.60;;;;;;;18.59;66.85;99670.54;107321;1258;59473;-38
2023/07/16 01:16:45;;;;;;;5.90;4.70;;;;;;;18.57;66.81;99673.09;107320;1254;73427;-38
2023/07/16 01:19:13;;;;;;;6.50;4.70;;;;;;;18.54;66.97;99670.13;107270;1256;67574;-38
2023/07/16 01:22:09;;;;;;;7.20;4.70;;;;;;;18.51;66.94;99670.84;107291;1260;72436;-38
2023/07/16 01:24:52;;;;;;;6.10;4.10;;;;;;;18.46;66.93;99671.02;107267;1262;60460;-38
2023/07/16 01:27:41;;;;;;;5.90;4.20;;;;;;;18.44;67.02;99673.79;107142;1257;60220;-38
2023/07/16 01:30:09;;;;;;;9.80;4.80;;;;;;;18.45;67.15;99673.39;107131;1257;71967;-38
2023/07/16 01:32:36;;;;;;;9.00;4.30;;;;;;;18.43;67.41;99668.08;107194;1257;67895;-38
2023/07/16 01:35:05;;;;;;;6.20;4.70;;;;;;;18.41;67.29;99668.08;107067;1257;71535;-38
2023/07/16 01:37:33;;;;;;;6.50;4.10;;;;;;;18.39;67.42;99671.16;107247;1263;60039;-38
2023/07/16 01:40:02;;;;;;;6.00;4.90;;;;;;;18.35;67.30;99668.14;107197;1262;59485;-38
2023/07/16 01:42:29;;;;;;;9.00;4.40;;;;;;;18.32;67.53;99665.95;107258;1255;73107;-38
2023/07/16 01:44:57;;;;;;;6.20;4.30;;;;;;;18.31;67.43;99667.23;107244;1263;66266;-38
2023/07/16 01:47:28;;;;;;;6.90;3.90;;;;;;;18.30;67.62;99668.81;107271;1257;71447;-38
2023/07/16 01:49:56;;;;;;;6.40;4.40;;;;;;;18.23;67.58;99668.07;107262;1260;60085;-38
2023/07/16 01:52:24;;;;;;;6.20;4.90;;;;;;;18.18;67.66;99669.44;107185;1255;60061;-38
2023/07/16 01:54:51;;;;;;;7.00;4.80;;;;;;;18.13;67.43;99668.77;107233;1256;73136;-38
2023/07/16 01:57:21;;;;;;;7.60;4.40;;;;;;;18.08;67.36;99666.98;107318;1257;67806;-38
2023/07/16 01:59:49;;;;;;;7.50;4.40;;;;;;;18.03;67.48;99671.02;107287;1258;71446;-38
2023/07/16 02:02:16;;;;;;;5.40;4.00;;;;;;;17.98;67.42;99667.45;107230;1257;60994;-38
2023/07/16 02:04:45;;;;;;;7.10;4.10;;;;;;;17.94;67.36;99667.02;107412;1257;59486;-38
2023/07/16 02:07:12;;;;;;;10.70;4.40;;;;;;;17.96;67.24;99663.85;107231;1255;73513;-38
2023/07/16 02:09:40;;;;;;;6.60;4.20;;;;;;;17.95;67.16;99666.84;107239;1258;65456;-38
2023/07/16 02:12:08;;;;;;;8.50;4.40;;;;;;;17.92;66.71;99665.52;107277;1257;71453;-38
2023/07/16 02:14:35;;;;;;;6.50;3.90;;;;;;;17.90;66.55;99668.21;107238;1256;59699;-38
2023/07/16 02:17:04;;;;;;;5.00;4.00;;;;;;;17.87;66.43;99671.35;107294;1255;60031;-38
2023/07/16 02:19:31;;;;;;;6.70;4.60;;;;;;;17.86;66.51;99668.55;107251;1258;73064;-38
2023/07/16 02:21:59;;;;;;;5.20;4.20;;;;;;;17.82;66.83;99668.71;107131;1257;66147;-38
2023/07/16 02:24:28;;;;;;;5.40;4.00;;;;;;;17.82;67.04;99664.72;107215;1258;71672;-38
2023/07/16 02:26:56;;;;;;;6.70;4.40;;;;;;;17.86;67.11;99663.36;107205;1261;59730;-38
2023/07/16 02:29:23;;;;;;;8.40;4.00;;;;;;;17.85;67.14;99663.63;107210;1257;60098;-38
2023/07/16 02:31:51;;;;;;;8.50;4.20;;;;;;;17.80;67.22;99663.72;107212;1257;71766;-38
2023/07/16 02:34:19;;;;;;;8.40;4.30;;;;;;;17.78;67.43;99658.71;107205;1260;67917;-38
2023/07/16 02:36:46;;;;;;;5.80;4.10;;;;;;;17.77;67.32;99662.00;107259;1257;72661;-38
2023/07/16 02:39:14;;;;;;;8.60;4.20;;;;;;;17.75;67.24;99664.30;107260;1260;59693;-38
2023/07/16 02:41:42;;;;;;;6.40;4.60;;;;;;;17.71;67.07;99664.31;107317;1257;60082;-38
2023/07/16 02:44:10;;;;;;;6.50;4.50;;;;;;;17.72;66.93;99661.88;107171;1260;73070;-38
2023/07/16 02:46:38;;;;;;;7.20;4.50;;;;;;;17.76;66.88;99661.85;107130;1256;67550;-38
2023/07/16 02:49:06;;;;;;;7.30;4.50;;;;;;;17.79;66.86;99666.23;107202;1257;74069;-38
2023/07/16 02:51:33;;;;;;;7.20;4.20;;;;;;;17.79;66.96;99666.55;107237;1256;60140;-38
2023/07/16 02:54:01;;;;;;;5.60;4.10;;;;;;;17.78;67.10;99668.58;107141;1257;60021;-38
2023/07/16 02:56:28;;;;;;;8.00;4.70;;;;;;;17.75;67.16;99669.86;107173;1255;71825;-38
2023/07/16 02:58:56;;;;;;;6.10;4.10;;;;;;;17.73;67.28;99668.21;107199;1261;65449;-38
2023/07/16 03:01:24;;;;;;;6.90;4.60;;;;;;;17.70;67.36;99666.52;107151;1256;72725;-38
2023/07/16 03:03:52;;;;;;;5.20;3.80;;;;;;;17.71;67.44;99667.91;107231;1260;61735;-38
2023/07/16 03:06:19;;;;;;;5.00;4.30;;;;;;;17.79;67.41;99667.33;107205;1257;60615;-38
2023/07/16 03:08:51;;;;;;;6.30;4.50;;;;;;;17.84;67.38;99661.34;107204;1255;71778;-38
2023/07/16 03:11:18;;;;;;;5.50;4.60;;;;;;;17.87;67.59;99661.33;107195;1257;66746;-38
2023/07/16 03:13:46;;;;;;;5.70;4.10;;;;;;;17.88;67.68;99664.85;107165;1257;71483;-38
2023/07/16 03:16:14;;;;;;;8.10;4.60;;;;;;;17.90;67.79;99664.20;107215;1260;60094;-38
2023/07/16 03:18:44;;;;;;;6.00;4.20;;;;;;;17.94;67.92;99669.29;107185;1257;59355;-38
2023/07/16 03:21:12;;;;;;;4.40;3.70;;;;;;;18.00;68.05;99669.40;107172;1257;73073;-38
2023/07/16 03:23:40;;;;;;;6.10;4.90;;;;;;;18.07;68.05;99672.41;107154;1260;67449;-38
2023/07/16 03:26:08;;;;;;;6.10;4.70;;;;;;;18.15;68.11;99676.27;107216;1257;71447;-38
2023/07/16 03:28:36;;;;;;;6.20;4.40;;;;;;;18.21;68.10;99678.05;107173;1257;60069;-38
2023/07/16 03:31:05;;;;;;;6.80;4.60;;;;;;;18.27;68.30;99679.10;107173;1258;59435;-38
2023/07/16 03:33:33;;;;;;;4.60;4.20;;;;;;;18.32;68.54;99680.23;107150;1257;71841;-38
2023/07/16 03:36:01;;;;;;;6.70;4.50;;;;;;;18.36;68.95;99683.89;107130;1257;67563;-38
2023/07/16 03:38:28;;;;;;;7.20;4.20;;;;;;;18.45;69.35;99687.66;107081;1257;71501;-38
2023/07/16 03:40:56;;;;;;;6.50;4.50;;;;;;;18.57;69.49;99685.79;107221;1260;59592;-38
2023/07/16 03:43:24;;;;;;;4.90;4.30;;;;;;;18.67;69.52;99688.70;107266;1257;59402;-38
2023/07/16 03:45:54;;;;;;;5.50;4.40;;;;;;;18.74;69.57;99685.65;107246;1257;71836;-38
2023/07/16 03:48:22;;;;;;;12.60;4.70;;;;;;;18.80;69.62;99690.31;107209;1262;66768;-38
2023/07/16 03:50:50;;;;;;;5.20;3.80;;;;;;;18.86;69.85;99686.40;107348;1257;71472;-38
2023/07/16 03:53:18;;;;;;;4.80;3.50;;;;;;;18.95;69.82;99690.70;107205;1257;61658;-38
2023/07/16 03:55:46;;;;;;;7.50;4.60;;;;;;;19.06;69.68;99689.58;107212;1255;60152;-38
2023/07/16 03:58:13;;;;;;;8.30;4.80;;;;;;;19.16;69.36;99693.48;107280;1257;71433;-38
2023/07/16 04:00:41;;;;;;;9.70;4.30;;;;;;;19.22;68.85;99693.34;107223;1257;66866;-38
2023/07/16 04:03:08;;;;;;;7.80;4.60;;;;;;;19.29;68.65;99692.63;107108;1257;72682;-38
2023/07/16 04:05:38;;;;;;;5.80;4.80;;;;;;;19.37;68.95;99691.98;107184;1257;59592;-38
2023/07/16 04:08:06;;;;;;;5.90;4.30;;;;;;;19.44;68.21;99694.20;107058;1257;60578;-38
2023/07/16 04:10:34;;;;;;;5.30;4.40;;;;;;;19.55;67.43;99697.86;107146;1256;70918;-38
2023/07/16 04:13:01;;;;;;;5.80;4.30;;;;;;;19.66;67.29;99693.32;107289;1257;66355;-38
2023/07/16 04:15:29;;;;;;;9.20;4.20;;;;;;;19.75;67.06;99693.11;107224;1257;72731;-38
2023/07/16 04:17:56;;;;;;;6.40;4.40;;;;;;;19.83;66.95;99691.14;107226;1257;60313;-38
2023/07/16 04:20:24;;;;;;;8.00;4.20;;;;;;;19.91;66.14;99689.84;107307;1260;60415;-38
2023/07/16 04:22:53;;;;;;;8.60;4.10;;;;;;;19.99;64.56;99689.34;107180;1256;72427;-37
2023/07/16 04:25:20;;;;;;;5.50;4.40;;;;;;;20.05;63.53;99688.77;107616;1260;67599;-38
2023/07/16 04:27:48;;;;;;;6.20;4.00;;;;;;;20.13;62.71;99688.13;107316;1257;72654;-38
2023/07/16 04:30:16;;;;;;;6.00;3.80;;;;;;;20.18;61.83;99692.36;107200;1255;60329;-37
2023/07/16 04:32:43;;;;;;;6.20;4.00;;;;;;;20.24;61.39;99698.02;107243;1257;60538;-38
2023/07/16 04:35:11;;;;;;;4.20;3.70;;;;;;;20.29;61.35;99697.27;107325;1257;73828;-38
2023/07/16 04:37:39;;;;;;;6.50;3.90;;;;;;;20.36;61.38;99700.30;107324;1260;68246;-38
2023/07/16 04:40:08;;;;;;;5.30;3.90;;;;;;;20.44;61.39;99700.59;107267;1261;71386;-38
2023/07/16 04:42:36;;;;;;;;;;;;;;;20.50;61.08;99699.79;107315;1256;60408;-38
2023/07/16 04:45:05;;;;;;;4.10;3.40;;;;;;;20.52;60.50;99705.73;107306;1257;59873;-38
2023/07/16 04:47:32;;;;;;;4.50;3.80;;;;;;;20.55;60.04;99707.80;107344;1257;73859;-38
2023/07/16 04:50:00;;;;;;;6.70;3.60;;;;;;;20.65;60.40;99705.20;107337;1257;67665;-37
2023/07/16 04:52:27;;;;;;;4.30;3.80;;;;;;;20.73;60.05;99711.98;107306;1257;73263;-38
2023/07/16 04:54:55;;;;;;;7.60;3.80;;;;;;;20.82;60.20;99707.67;107294;1257;60987;-38
2023/07/16 04:57:23;;;;;;;5.00;3.80;;;;;;;20.93;60.36;99706.67;107267;1260;60769;-38
2023/07/16 04:59:50;;;;;;;8.00;3.80;;;;;;;21.07;60.06;99709.10;107206;1257;72992;-38
2023/07/16 05:02:18;;;;;;;4.40;3.40;;;;;;;21.18;60.19;99709.24;107288;1257;67894;-38
2023/07/16 05:04:48;;;;;;;4.60;3.20;;;;;;;21.28;59.97;99704.65;107278;1260;71404;-38
2023/07/16 05:07:16;;;;;;;3.80;3.20;;;;;;;21.39;59.43;99709.56;107274;1254;60389;-38
2023/07/16 05:09:43;;;;;;;4.10;3.20;;;;;;;21.49;58.59;99711.19;107255;1255;60514;-39
2023/07/16 05:12:11;;;;;;;6.40;3.60;;;;;;;21.58;58.66;99707.46;107341;1257;73804;-38
2023/07/16 05:14:47;;;;;;;5.30;3.80;;;;;;;21.66;59.00;99709.66;107478;1258;67542;-38
2023/07/16 05:17:15;;;;;;;4.40;3.20;;;;;;;21.73;58.91;99709.96;107284;1257;72998;-38
2023/07/16 05:19:43;;;;;;;4.70;3.20;;;;;;;21.79;59.53;99712.52;107285;1257;60086;-38
2023/07/16 05:22:11;;;;;;;4.00;3.60;;;;;;;21.86;59.92;99713.41;107276;1260;60325;-38
2023/07/16 05:24:39;;;;;;;10.50;4.60;;;;;;;21.93;60.24;99713.51;107234;1256;74298;-38
2023/07/16 05:27:06;;;;;;;7.00;4.90;;;;;;;22.02;60.85;99715.30;107260;1257;67607;-38
2023/07/16 05:29:34;;;;;;;7.70;5.60;;;;;;;22.14;60.79;99715.58;107141;1257;72667;-38
2023/07/16 05:32:02;;;;;;;9.90;7.40;;;;;;;22.27;61.05;99715.36;107263;1258;60539;-38
2023/07/16 05:34:30;;;;;;;9.00;6.70;;;;;;;22.38;60.56;99717.55;107278;1257;59888;-38
2023/07/16 05:36:58;;;;;;;12.20;11.10;;;;;;;22.47;59.51;99719.88;107176;1260;73834;-38
2023/07/16 05:39:25;;;;;;;8.70;7.80;;;;;;;22.55;59.49;99719.38;107093;1256;66335;-39
2023/07/16 05:41:53;;;;;;;9.90;7.10;;;;;;;22.62;57.29;99722.34;107213;1257;71052;-38
2023/07/16 05:44:20;;;;;;;7.30;5.70;;;;;;;22.68;53.72;99722.38;107152;1257;60412;-38
2023/07/16 05:46:48;;;;;;;7.40;6.70;;;;;;;22.74;51.96;99728.09;107216;1257;60025;-38
2023/07/16 05:49:16;;;;;;;8.10;6.50;;;;;;;22.81;52.26;99728.55;107278;1254;73828;-38
2023/07/16 05:51:43;;;;;;;9.60;7.90;;;;;;;22.86;51.36;99729.66;107290;1256;65789;-38
2023/07/16 05:54:11;;;;;;;9.70;8.70;;;;;;;22.93;51.99;99728.01;107264;1260;73197;-38
2023/07/16 05:56:38;;;;;;;8.80;8.00;;;;;;;22.98;51.73;99725.98;107232;1257;61049;-38
2023/07/16 05:59:06;;;;;;;9.40;7.90;;;;;;;23.05;51.16;99727.16;107294;1255;60394;-38
2023/07/16 06:01:33;;;;;;;7.90;7.10;;;;;;;23.09;51.24;99729.02;107260;1257;74291;-38
2023/07/16 06:04:02;;;;;;;6.50;5.90;;;;;;;23.15;50.69;99726.81;107267;1258;67527;-38
2023/07/16 06:06:30;;;;;;;5.70;5.10;;;;;;;23.21;50.86;99730.98;107199;1260;72672;-38
2023/07/16 06:08:58;;;;;;;5.90;5.30;;;;;;;23.26;51.46;99728.08;107196;1257;60446;-38
2023/07/16 06:11:25;;;;;;;5.80;4.90;;;;;;;23.31;52.10;99729.39;107199;1257;59298;-38
2023/07/16 06:13:53;;;;;;;5.20;4.70;;;;;;;23.37;52.22;99730.09;107122;1257;73854;-38
2023/07/16 06:16:21;;;;;;;6.10;4.60;;;;;;;23.42;51.17;99726.79;107142;1257;66629;-38
2023/07/16 06:18:49;;;;;;;5.80;4.90;;;;;;;23.48;50.81;99725.22;107107;1257;72698;-38
2023/07/16 06:21:16;;;;;;;5.80;4.90;;;;;;;23.53;50.76;99723.96;107067;1257;60577;-38
2023/07/16 06:23:44;;;;;;;4.50;4.00;;;;;;;23.60;50.73;99726.47;107075;1257;60338;-38
2023/07/16 06:26:12;;;;;;;4.70;4.00;;;;;;;23.66;50.21;99722.23;107123;1257;74000;-38
2023/07/16 06:28:39;;;;;;;3.30;2.90;;;;;;;23.73;48.93;99723.46;107106;1257;67560;-38
2023/07/16 06:31:07;;;;;;;5.00;3.70;;;;;;;23.80;47.69;99725.40;107100;1257;71380;-38
2023/07/16 06:33:35;;;;;;;5.20;3.80;;;;;;;23.90;48.34;99723.00;107068;1260;60415;-38
2023/07/16 06:36:03;;;;;;;4.00;3.60;;;;;;;23.97;47.51;99732.19;107068;1256;60489;-38
2023/07/16 06:38:31;;;;;;;4.10;3.70;;;;;;;24.03;47.00;99726.15;107121;1262;73899;-39
2023/07/16 06:40:58;;;;;;;4.70;3.30;;;;;;;24.09;46.49;99729.14;107139;1262;65849;-38
2023/07/16 06:43:26;;;;;;;3.70;2.80;;;;;;;24.14;45.86;99730.57;107197;1257;72695;-39
2023/07/16 06:45:54;;;;;;;4.80;3.20;;;;;;;24.19;45.28;99731.23;107142;1256;60555;-38
2023/07/16 06:48:22;;;;;;;4.40;2.80;;;;;;;24.25;44.65;99731.52;107101;1257;60418;-39
2023/07/16 06:50:51;;;;;;;3.90;2.80;;;;;;;24.30;43.72;99728.69;107106;1257;73876;-38
2023/07/16 06:53:18;;;;;;;3.60;3.30;;;;;;;24.34;43.33;99732.27;107179;1257;67903;-38
2023/07/16 06:55:48;;;;;;;3.80;3.20;;;;;;;24.40;44.40;99728.36;107136;1261;71445;-38
2023/07/16 06:58:16;;;;;;;4.10;3.40;;;;;;;24.45;44.36;99730.90;107112;1258;60363;-38
2023/07/16 07:00:44;;;;;;;4.80;3.10;;;;;;;24.49;44.29;99729.42;107124;1259;60277;-38
2023/07/16 07:03:12;;;;;;;4.30;3.10;;;;;;;24.53;44.30;99724.92;107098;1257;73949;-38
2023/07/16 07:05:41;;;;;;;3.30;2.80;;;;;;;24.57;44.18;99725.36;107192;1257;67884;-38
2023/07/16 07:08:09;;;;;;;4.50;3.30;;;;;;;24.62;43.66;99729.61;107105;1257;72488;-38
2023/07/16 07:10:39;;;;;;;5.80;2.80;;;;;;;24.67;43.69;99731.19;107209;1257;59579;-38
2023/07/16 07:13:07;;;;;;;3.00;2.60;;;;;;;24.73;42.89;99733.32;107109;1258;60274;-38
2023/07/16 07:15:34;;;;;;;5.90;2.50;;;;;;;24.80;42.93;99732.06;107144;1257;73876;-38
2023/07/16 07:18:02;;;;;;;3.90;2.60;;;;;;;24.87;42.04;99733.91;107142;1257;67623;-39
2023/07/16 07:20:30;;;;;;;4.00;2.50;;;;;;;24.94;40.46;99732.17;107081;1258;72674;-39
2023/07/16 07:22:58;;;;;;;3.70;2.60;;;;;;;25.02;39.04;99726.98;107187;1257;60367;-38
2023/07/16 07:25:26;;;;;;;3.60;2.50;;;;;;;25.12;38.90;99725.46;107057;1258;60335;-38
2023/07/16 07:27:54;;;;;;;2.90;2.10;;;;;;;25.21;37.64;99732.11;107035;1257;73991;-39
2023/07/16 07:30:22;;;;;;;4.90;2.40;;;;;;;25.30;36.76;99735.14;107038;1257;67605;-38
2023/07/16 07:32:49;;;;;;;5.80;2.50;;;;;;;25.39;37.00;99733.83;107137;1260;71422;-38
2023/07/16 07:35:17;;;;;;;6.30;2.00;;;;;;;25.51;36.21;99734.05;107071;1260;60517;-38
2023/07/16 07:37:44;;;;;;;3.60;2.00;;;;;;;25.64;36.47;99736.08;107065;1257;60369;-39
2023/07/16 07:40:12;;;;;;;3.30;2.50;;;;;;;25.77;35.85;99736.08;107101;1257;72635;-38
2023/07/16 07:42:40;;;;;;;2.80;2.20;;;;;;;25.86;35.82;99729.70;107161;1257;68513;-38
2023/07/16 07:45:08;;;;;;;4.40;2.50;;;;;;;25.94;36.50;99730.98;107101;1260;71455;-39
2023/07/16 07:47:35;;;;;;;2.70;2.30;;;;;;;26.04;36.56;99730.02;107102;1260;60411;-38
2023/07/16 07:50:04;;;;;;;3.20;2.30;;;;;;;26.16;37.28;99724.80;107090;1258;60418;-38
2023/07/16 07:52:31;;;;;;;2.40;2.20;;;;;;;26.27;36.55;99724.09;107106;1257;73038;-39
2023/07/16 07:54:59;;;;;;;2.90;2.30;;;;;;;26.35;36.83;99722.71;107023;1257;67579;-40
2023/07/16 07:57:27;;;;;;;3.20;2.70;;;;;;;26.42;35.92;99721.25;107045;1258;73640;-40
2023/07/16 07:59:57;;;;;;;2.80;2.20;;;;;;;26.47;36.46;99713.91;107065;1258;60415;-38
2023/07/16 08:02:25;;;;;;;3.20;2.70;;;;;;;26.54;35.94;99716.19;107112;1257;60300;-39
2023/07/16 08:04:53;;;;;;;3.10;2.40;;;;;;;26.59;36.32;99709.62;107033;1257;73863;-38
2023/07/16 08:07:22;;;;;;;3.40;2.50;;;;;;;26.66;36.87;99709.39;107255;1257;67587;-38
2023/07/16 08:09:49;;;;;;;5.20;2.60;;;;;;;26.71;35.88;99702.41;107113;1258;72704;-38
2023/07/16 08:12:17;;;;;;;2.60;2.40;;;;;;;26.78;36.66;99711.14;107196;1257;61736;-38
2023/07/16 08:14:45;;;;;;;2.70;2.50;;;;;;;26.86;36.10;99708.52;107123;1258;60392;-39
2023/07/16 08:17:13;;;;;;;3.20;2.60;;;;;;;26.91;35.21;99706.45;107124;1257;73928;-39
2023/07/16 08:19:40;;;;;;;3.20;2.40;;;;;;;26.96;35.57;99705.33;107158;1257;68671;-39
2023/07/16 08:22:08;;;;;;;2.90;2.50;;;;;;;27.05;36.24;99704.68;107034;1262;73121;-39
2023/07/16 08:24:35;;;;;;;3.80;2.60;;;;;;;27.16;35.99;99698.25;107214;1257;60466;-39
2023/07/16 08:27:04;;;;;;;4.00;2.70;;;;;;;27.31;35.84;99704.89;107166;1257;60422;-39
2023/07/16 08:29:31;;;;;;;3.80;2.80;;;;;;;27.39;36.38;99699.20;107244;1257;73860;-39
2023/07/16 08:31:59;;;;;;;3.40;2.60;;;;;;;27.50;36.58;99697.06;107194;1257;68102;-39
2023/07/16 08:34:26;;;;;;;3.40;2.60;;;;;;;27.62;35.43;99689.70;107228;1257;71241;-39
2023/07/16 08:36:54;;;;;;;3.50;2.40;;;;;;;27.74;35.21;99692.86;107090;1261;60066;-39
2023/07/16 08:39:27;;;;;;;4.80;2.20;;;;;;;27.91;35.75;99695.03;107216;1257;60429;-39
2023/07/16 08:41:55;;;;;;;3.90;2.50;;;;;;;28.03;35.62;99693.35;107215;1257;74221;-39
2023/07/16 08:44:24;;;;;;;3.00;2.70;;;;;;;28.05;34.62;99693.78;107042;1257;67979;-38
2023/07/16 08:46:51;;;;;;;3.70;2.40;;;;;;;28.01;33.97;99687.85;107184;1257;71426;-39
2023/07/16 08:49:20;;;;;;;3.60;2.70;;;;;;;27.96;34.24;99686.02;107229;1257;60309;-40
2023/07/16 08:51:52;;;;;;;2.90;2.50;;;;;;;27.94;35.42;99688.92;107203;1257;60286;-38
2023/07/16 08:54:20;;;;;;;4.70;2.60;;;;;;;27.95;34.60;99687.91;107139;1257;72729;-40
2023/07/16 08:56:48;;;;;;;5.20;2.50;;;;;;;27.96;34.79;99685.23;107237;1256;66600;-39
2023/07/16 08:59:16;;;;;;;3.90;2.80;;;;;;;27.98;35.61;99684.98;107208;1257;72840;-39
2023/07/16 09:01:48;;;;;;;5.10;2.90;;;;;;;28.03;34.96;99682.86;106991;1257;59689;-39
2023/07/16 09:04:17;;;;;;;4.70;3.00;;;;;;;28.04;34.63;99680.77;107175;1257;61064;-39
2023/07/16 09:06:49;;;;;;;5.10;2.90;;;;;;;28.07;34.61;99681.50;107088;1257;73853;-39
2023/07/16 09:09:22;;;;;;;3.80;2.60;;;;;;;28.16;34.85;99682.42;107226;1257;66386;-39
2023/07/16 09:11:51;;;;;;;3.30;2.70;;;;;;;28.24;34.98;99681.56;107185;1257;73547;-39
2023/07/16 09:14:19;;;;;;;2.80;2.50;;;;;;;28.30;35.11;99679.02;107200;1257;59660;-39
2023/07/16 09:16:51;;;;;;;3.60;2.70;;;;;;;28.34;35.16;99680.88;107124;1257;60197;-39
2023/07/16 09:19:18;;;;;;;3.10;2.80;;;;;;;28.43;34.91;99681.59;107213;1256;73899;-39
2023/07/16 09:21:49;;;;;;;4.50;2.70;;;;;;;28.59;34.67;99678.20;107237;1257;67618;-39
2023/07/16 09:24:18;;;;;;;3.40;2.70;;;;;;;28.76;33.47;99680.56;107249;1258;73259;-39
2023/07/16 09:26:49;;;;;;;4.30;2.50;;;;;;;28.82;34.18;99680.99;107071;1261;60655;-39
2023/07/16 09:29:17;;;;;;;3.30;2.50;;;;;;;28.89;34.77;99679.26;107284;1257;60440;-39
2023/07/16 09:31:59;;;;;;;4.10;3.10;;;;;;;29.00;34.33;99672.83;107192;1257;74194;-39
2023/07/16 09:34:27;;;;;;;4.80;3.20;;;;;;;29.13;33.54;99675.00;107173;1262;68027;-39
2023/07/16 09:36:58;;;;;;;4.40;3.30;;;;;;;29.19;32.99;99675.17;107061;1257;71504;-39
2023/07/16 09:39:27;;;;;;;3.80;3.00;;;;;;;29.20;33.03;99675.25;107194;1257;60286;-39
2023/07/16 09:41:57;;;;;;;4.60;3.20;;;;;;;29.16;33.23;99674.10;107304;1257;60339;-39
2023/07/16 09:44:25;;;;;;;3.00;2.70;;;;;;;29.08;32.91;99670.40;107190;1257;74295;-39
2023/07/16 09:46:52;;;;;;;4.70;3.30;;;;;;;29.07;33.19;99670.31;107185;1257;67949;-39
2023/07/16 09:49:20;;;;;;;4.80;3.10;;;;;;;29.11;32.73;99667.70;107151;1257;73190;-39
2023/07/16 09:51:48;;;;;;;3.50;3.20;;;;;;;29.12;32.61;99662.77;107135;1257;60450;-39
2023/07/16 09:54:15;;;;;;;4.30;3.00;;;;;;;29.12;32.95;99659.10;107065;1257;60512;-39
2023/07/16 09:56:55;;;;;;;3.70;2.80;;;;;;;29.09;33.16;99656.45;107172;1257;72659;-40
2023/07/16 09:59:24;;;;;;;4.20;3.10;;;;;;;29.07;31.79;99662.59;107175;1257;66767;-39
2023/07/16 10:01:52;;;;;;;4.00;2.70;;;;;;;29.06;32.61;99654.96;107160;1257;72709;-40
2023/07/16 10:04:20;;;;;;;5.40;3.10;;;;;;;29.13;32.84;99652.20;107011;1257;60546;-40
2023/07/16 10:06:57;;;;;;;4.70;2.90;;;;;;;29.25;32.64;99654.92;107204;1257;60368;-40
2023/07/16 10:09:41;;;;;;;5.30;2.90;;;;;;;29.38;32.31;99652.30;107176;1257;73841;-39
2023/07/16 10:12:15;;;;;;;4.60;3.10;;;;;;;29.52;32.24;99650.71;107216;1256;66618;-40
2023/07/16 10:15:03;;;;;;;4.80;3.20;;;;;;;29.66;32.37;99648.48;106907;1257;72678;-39
2023/07/16 10:17:32;;;;;;;4.20;3.10;;;;;;;29.86;32.44;99643.31;107070;1257;60352;-40
2023/07/16 10:20:00;;;;;;;3.20;2.90;;;;;;;29.99;31.69;99644.13;107351;1254;60349;-39
2023/07/16 10:22:42;;;;;;;5.20;3.10;;;;;;;30.08;31.58;99646.67;107361;1253;74414;-39
2023/07/16 10:25:24;;;;;;;3.40;3.00;;;;;;;30.08;31.27;99645.39;109178;1254;67575;-40
2023/07/16 10:27:53;;;;;;;4.10;2.80;;;;;;;30.07;31.58;99645.34;107526;1254;73140;-39
2023/07/16 10:30:20;;;;;;;3.90;2.70;;;;;;;30.16;31.68;99645.88;107479;1254;60305;-40
2023/07/16 10:32:50;;;;;;;3.10;2.80;;;;;;;30.29;31.24;99649.36;107509;1254;59221;-39
2023/07/16 10:35:18;;;;;;;3.60;3.30;;;;;;;30.39;32.11;99646.55;107524;1254;74301;-39
2023/07/16 10:37:46;;;;;;;4.40;3.20;;;;;;;30.53;31.77;99642.85;107445;1253;67585;-40
2023/07/16 10:40:14;;;;;;;3.90;2.90;;;;;;;30.64;31.17;99633.17;107472;1254;72786;-40
2023/07/16 10:42:43;;;;;;;4.50;3.20;;;;;;;30.71;31.30;99635.24;107520;1254;60435;-40
2023/07/16 10:45:10;;;;;;;4.60;3.00;;;;;;;30.80;31.48;99636.41;107578;1253;60508;-40
2023/07/16 10:47:51;;;;;;;4.20;3.00;;;;;;;30.94;31.06;99632.60;107515;1253;73900;-40
2023/07/16 10:50:20;;;;;;;3.80;3.10;;;;;;;31.17;30.60;99630.80;107461;1253;67579;-40
2023/07/16 10:52:53;;;;;;;4.60;3.40;;;;;;;31.40;31.45;99632.34;107412;1254;72750;-40
2023/07/16 10:55:21;;;;;;;3.70;2.90;;;;;;;31.54;30.68;99630.84;107879;1254;60302;-40
2023/07/16 10:57:49;;;;;;;3.60;3.10;;;;;;;31.59;30.76;99627.95;107428;1253;60553;-40
2023/07/16 11:00:17;;;;;;;3.50;3.10;;;;;;;31.80;30.70;99625.81;107426;1253;74221;-39
2023/07/16 11:02:46;;;;;;;3.60;3.20;;;;;;;31.83;30.55;99628.50;107429;1253;67575;-40
2023/07/16 11:05:14;;;;;;;5.20;3.20;;;;;;;31.70;30.01;99626.02;107470;1254;73130;-40
2023/07/16 11:07:45;;;;;;;3.80;3.30;;;;;;;31.58;29.81;99627.08;107451;1253;60238;-40
2023/07/16 11:10:19;;;;;;;4.00;3.30;;;;;;;31.58;29.43;99620.03;107455;1253;60301;-40
2023/07/16 11:12:52;;;;;;;3.30;3.00;;;;;;;31.67;29.79;99616.95;107422;1253;74368;-40
2023/07/16 11:15:31;;;;;;;3.70;3.00;;;;;;;31.75;30.05;99617.89;107465;1253;67898;-40
2023/07/16 11:17:58;;;;;;;3.90;3.00;;;;;;;31.73;29.63;99617.52;107520;1253;72692;-40
2023/07/16 11:20:26;;;;;;;4.20;3.00;;;;;;;31.75;29.22;99616.61;107178;1253;60326;-40
2023/07/16 11:22:54;;;;;;;4.70;3.50;;;;;;;31.84;29.51;99612.14;107422;1259;60161;-40
2023/07/16 11:25:24;;;;;;;3.30;3.00;;;;;;;31.89;29.94;99613.60;107413;1253;73896;-40
2023/07/16 11:27:54;;;;;;;4.30;3.40;;;;;;;31.95;29.45;99617.02;107540;1253;66815;-40
2023/07/16 11:30:25;;;;;;;5.00;3.50;;;;;;;32.00;28.63;99610.92;107415;1254;72681;-40
2023/07/16 11:32:53;;;;;;;3.70;3.10;;;;;;;32.04;28.93;99609.21;107488;1254;60118;-40